Time;durP1;ratioP1;P1;durP2;ratioP2;P2;SDS_P1;SDS_P2;PMS_P1;PMS_P2;Temp;Humidity;BMP_temperature;BMP_pressure;BME280_temperature;BME280_humidity;BME280_pressure;Samples;Min_cycle;Max_cycle;Signal;HPM_P1;HPM_P2
2023/01/12 00:01:43;;;;;;;13.88;5.28;;;;;;;7.76;100.00;100925.06;5092251;28;20024;-66
2023/01/12 00:04:12;;;;;;;10.75;5.30;;;;;;;7.90;100.00;100929.66;5091327;28;20035;-65
2023/01/12 00:06:38;;;;;;;13.45;5.35;;;;;;;7.87;100.00;100927.19;5093752;28;20027;-65
2023/01/12 00:09:05;;;;;;;18.73;5.90;;;;;;;7.90;100.00;100924.38;5074791;28;20114;-66
2023/01/12 00:11:31;;;;;;;14.52;5.50;;;;;;;7.90;100.00;100922.59;5079857;28;20033;-66
2023/01/12 00:13:57;;;;;;;10.20;5.00;;;;;;;7.84;100.00;100909.66;5073087;28;20027;-65
2023/01/12 00:19:03;;;;;;;11.25;5.10;;;;;;;7.85;100.00;100907.84;5072756;28;20111;-65
2023/01/12 00:21:34;;;;;;;18.55;5.82;;;;;;;7.85;100.00;100900.78;5074330;28;20052;-65
2023/01/12 00:23:59;;;;;;;13.23;5.53;;;;;;;7.92;100.00;100914.56;5055285;28;20127;-65
2023/01/12 00:26:27;;;;;;;14.13;6.00;;;;;;;8.02;100.00;100904.34;5072734;28;20186;-65
2023/01/12 00:28:53;;;;;;;17.48;6.10;;;;;;;7.99;100.00;100904.50;5073467;28;20056;-65
2023/01/12 00:31:20;;;;;;;12.13;5.68;;;;;;;8.02;100.00;100902.56;5085802;28;20410;-65
2023/01/12 00:33:46;;;;;;;16.70;6.13;;;;;;;8.02;100.00;100901.72;5091908;28;20438;-65
2023/01/12 00:36:14;;;;;;;16.77;5.82;;;;;;;7.96;100.00;100893.13;5075041;28;20024;-66
2023/01/12 00:38:40;;;;;;;20.50;6.78;;;;;;;8.02;100.00;100891.97;5092459;28;20035;-66
2023/01/12 00:41:07;;;;;;;14.50;5.88;;;;;;;8.00;100.00;100892.97;5087028;28;20373;-66
2023/01/12 00:46:17;;;;;;;13.10;5.72;;;;;;;7.99;100.00;100881.53;5092519;28;20471;-65
2023/01/12 00:48:43;;;;;;;17.45;6.25;;;;;;;7.99;100.00;100875.38;5113031;28;20110;-65
2023/01/12 00:51:08;;;;;;;16.15;5.93;;;;;;;8.03;100.00;100880.47;5100762;28;20395;-66
2023/01/12 00:53:34;;;;;;;18.17;5.95;;;;;;;8.03;100.00;100876.91;5112272;28;20120;-65
2023/01/12 00:56:03;;;;;;;19.35;6.28;;;;;;;8.04;100.00;100878.66;5094511;28;20047;-65
2023/01/12 00:58:29;;;;;;;17.38;6.38;;;;;;;7.98;100.00;100874.53;5111030;28;20032;-66
2023/01/12 01:01:04;;;;;;;22.70;6.85;;;;;;;8.02;100.00;100861.97;5111621;28;20053;-66
2023/01/12 01:03:35;;;;;;;15.68;5.70;;;;;;;7.96;100.00;100864.00;5107968;28;20032;-66
2023/01/12 01:06:06;;;;;;;14.15;5.75;;;;;;;7.97;100.00;100855.13;5080238;28;20364;-65
2023/01/12 01:08:35;;;;;;;17.98;6.32;;;;;;;7.94;100.00;100846.47;5102014;28;20486;-65
2023/01/12 01:11:06;;;;;;;19.25;5.68;;;;;;;8.04;100.00;100850.38;5112746;28;20015;-66
2023/01/12 01:13:32;;;;;;;19.50;6.22;;;;;;;7.99;100.00;100846.25;5107736;28;20100;-66
2023/01/12 01:15:59;;;;;;;15.50;6.78;;;;;;;7.95;100.00;100830.53;5094169;28;20069;-65
2023/01/12 01:18:25;;;;;;;16.60;6.28;;;;;;;7.92;100.00;100825.38;5112460;28;20074;-65
2023/01/12 01:20:51;;;;;;;21.77;6.32;;;;;;;7.96;100.00;100842.81;5094100;28;20386;-65
2023/01/12 01:23:16;;;;;;;18.02;7.38;;;;;;;8.02;100.00;100832.84;5110303;28;20046;-65
2023/01/12 01:25:41;;;;;;;18.75;6.57;;;;;;;8.01;100.00;100821.41;5076993;28;20059;-65
2023/01/12 01:28:09;;;;;;;22.95;6.80;;;;;;;8.03;100.00;100832.78;5093973;28;20043;-66
2023/01/12 01:30:35;;;;;;;17.77;6.82;;;;;;;8.05;100.00;100828.22;5093396;28;20042;-65
2023/01/12 01:33:03;;;;;;;23.48;6.85;;;;;;;8.01;100.00;100833.78;5076477;28;20394;-66
2023/01/12 01:35:29;;;;;;;30.95;7.82;;;;;;;7.98;100.00;100832.16;5092199;28;20047;-66
2023/01/12 01:37:55;;;;;;;25.70;7.95;;;;;;;8.01;100.00;100829.34;5090671;28;20475;-65
2023/01/12 01:40:21;;;;;;;19.63;6.63;;;;;;;8.10;100.00;100823.56;5073135;28;20093;-66
2023/01/12 01:42:46;;;;;;;20.58;7.07;;;;;;;8.03;100.00;100835.44;5092013;28;20078;-66
2023/01/12 01:45:15;;;;;;;23.23;7.70;;;;;;;7.96;100.00;100821.63;5089790;28;20126;-65
2023/01/12 01:47:55;;;;;;;22.13;6.80;;;;;;;8.00;100.00;100826.75;5091636;28;20051;-66
2023/01/12 01:50:31;;;;;;;19.40;6.55;;;;;;;7.96;100.00;100807.53;5091755;28;20085;-65
2023/01/12 01:53:05;;;;;;;33.05;7.97;;;;;;;7.92;100.00;100796.25;5092428;28;20016;-65
2023/01/12 01:55:37;;;;;;;24.35;7.70;;;;;;;7.92;100.00;100788.31;5097225;28;20044;-66
2023/01/12 01:58:09;;;;;;;17.50;6.00;;;;;;;7.99;100.00;100785.34;5106982;28;20035;-65
2023/01/12 02:00:37;;;;;;;17.17;6.80;;;;;;;7.89;100.00;100780.53;5101875;28;20485;-65
2023/01/12 02:03:06;;;;;;;21.65;6.95;;;;;;;7.95;100.00;100774.06;5100437;28;20032;-65
2023/01/12 02:05:32;;;;;;;22.35;5.72;;;;;;;7.89;100.00;100769.09;5111314;28;20023;-65
2023/01/12 02:08:03;;;;;;;23.17;7.05;;;;;;;7.94;100.00;100770.56;5112369;28;20085;-65
2023/01/12 02:10:29;;;;;;;21.98;7.60;;;;;;;7.97;100.00;100775.69;5092819;28;20059;-65
2023/01/12 02:16:24;;;;;;;22.83;7.47;;;;;;;7.91;100.00;100765.44;5110559;28;20115;-66
2023/01/12 02:19:14;;;;;;;26.55;7.55;;;;;;;7.94;100.00;100762.63;5111040;28;20169;-65
2023/01/12 02:21:57;;;;;;;32.72;7.50;;;;;;;7.98;100.00;100747.41;5111998;28;20535;-65
2023/01/12 02:24:44;;;;;;;25.73;7.63;;;;;;;7.99;100.00;100751.75;5109367;28;20024;-65
2023/01/12 02:27:22;;;;;;;25.20;7.68;;;;;;;7.94;100.00;100753.78;5107181;28;20075;-66
2023/01/12 02:30:29;;;;;;;24.65;7.30;;;;;;;8.00;100.00;100758.78;5091233;28;20062;-65
2023/01/12 02:33:11;;;;;;;24.42;8.05;;;;;;;7.97;100.00;100751.84;5012715;28;20058;-65
2023/01/12 02:36:25;;;;;;;26.88;8.52;;;;;;;7.96;100.00;100746.63;5110990;28;20028;-65
2023/01/12 02:39:33;;;;;;;23.42;7.43;;;;;;;7.91;100.00;100741.59;5008771;28;20607;-65
2023/01/12 02:42:40;;;;;;;22.75;8.13;;;;;;;7.98;100.00;100728.88;4953848;28;20027;-65
2023/01/12 02:45:15;;;;;;;19.48;7.22;;;;;;;7.97;100.00;100722.72;5031892;28;20041;-65
2023/01/12 02:47:58;;;;;;;27.15;7.55;;;;;;;7.98;100.00;100718.28;5099733;28;20040;-66
2023/01/12 02:50:40;;;;;;;26.05;7.65;;;;;;;8.05;100.00;100710.84;5115542;28;20020;-65
2023/01/12 02:53:13;;;;;;;29.27;7.85;;;;;;;8.00;100.00;100718.19;5114673;28;20102;-65
2023/01/12 02:55:40;;;;;;;21.83;7.90;;;;;;;8.11;100.00;100705.22;5095787;28;20099;-65
2023/01/12 02:58:10;;;;;;;21.75;7.38;;;;;;;7.95;100.00;100702.56;5087692;28;20034;-65
2023/01/12 03:00:37;;;;;;;24.90;8.15;;;;;;;8.00;100.00;100710.22;5100398;28;20047;-65
2023/01/12 03:03:04;;;;;;;23.52;7.32;;;;;;;8.02;100.00;100703.91;5095074;28;20028;-65
2023/01/12 03:05:30;;;;;;;20.35;7.47;;;;;;;8.00;100.00;100684.63;5106427;28;20437;-65
2023/01/12 03:08:03;;;;;;;17.77;7.18;;;;;;;8.02;100.00;100684.53;5103239;28;20035;-66
2023/01/12 03:10:28;;;;;;;19.20;6.72;;;;;;;8.05;100.00;100685.22;5101855;28;20036;-66
2023/01/12 03:12:56;;;;;;;23.15;7.75;;;;;;;8.00;100.00;100676.69;5114154;28;20024;-66
2023/01/12 03:15:25;;;;;;;24.52;8.70;;;;;;;8.04;100.00;100654.38;5114896;28;20095;-66
2023/01/12 03:18:18;;;;;;;23.30;7.75;;;;;;;8.02;100.00;100660.69;5096381;28;20114;-65
2023/01/12 03:20:51;;;;;;;21.80;6.50;;;;;;;8.01;100.00;100657.19;5115041;28;20059;-65
2023/01/12 03:23:43;;;;;;;22.60;6.63;;;;;;;8.06;100.00;100647.22;5113823;28;20039;-65
2023/01/12 03:26:13;;;;;;;16.15;7.03;;;;;;;8.05;100.00;100642.84;5092895;28;20042;-65
2023/01/12 03:28:43;;;;;;;22.00;6.82;;;;;;;8.01;100.00;100635.16;5108465;28;20475;-65
2023/01/12 03:31:10;;;;;;;;;;;;;;;8.09;100.00;100639.09;5095571;28;20059;-66
2023/01/12 03:33:41;;;;;;;18.05;6.50;;;;;;;8.08;100.00;100640.00;5089868;28;20274;-65
2023/01/12 03:36:16;;;;;;;20.88;7.00;;;;;;;8.01;100.00;100636.00;5085669;28;20114;-66
2023/01/12 03:39:06;;;;;;;15.07;6.50;;;;;;;8.06;100.00;100622.50;5089771;28;20043;-66
2023/01/12 03:41:47;;;;;;;18.95;6.35;;;;;;;8.07;100.00;100626.88;5093756;28;20034;-66
2023/01/12 03:45:05;;;;;;;18.35;6.43;;;;;;;8.05;100.00;100623.44;5110652;28;20122;-65
2023/01/12 03:47:33;;;;;;;14.93;6.00;;;;;;;8.14;100.00;100607.88;5090450;28;20059;-66
2023/01/12 03:50:13;;;;;;;21.85;7.13;;;;;;;8.02;100.00;100594.50;5113246;28;20384;-65
2023/01/12 03:52:40;;;;;;;18.33;6.97;;;;;;;7.96;100.00;100575.34;5095239;28;20035;-65
2023/01/12 03:55:10;;;;;;;18.52;7.30;;;;;;;8.02;100.00;100568.00;5110409;28;20055;-66
2023/01/12 03:57:37;;;;;;;16.13;6.78;;;;;;;7.96;100.00;100537.44;5085871;28;20475;-66
2023/01/12 04:00:06;;;;;;;18.42;6.45;;;;;;;7.95;100.00;100549.81;5076762;28;20028;-66
2023/01/12 04:02:32;;;;;;;16.95;6.60;;;;;;;7.96;100.00;100542.72;5113103;28;20046;-66
2023/01/12 04:04:58;;;;;;;13.88;6.68;;;;;;;7.99;100.00;100547.84;5095103;28;20394;-66
2023/01/12 04:07:23;;;;;;;15.25;6.50;;;;;;;7.97;100.00;100558.53;5090641;28;20028;-66
2023/01/12 04:09:49;;;;;;;16.35;7.25;;;;;;;8.00;100.00;100527.50;5075619;28;20035;-65
2023/01/12 04:12:15;;;;;;;12.02;5.95;;;;;;;8.07;100.00;100529.72;5087404;28;20110;-65
2023/01/12 04:14:44;;;;;;;15.65;6.60;;;;;;;7.99;100.00;100507.28;5071228;28;20028;-66
2023/01/12 04:17:13;;;;;;;18.33;7.20;;;;;;;7.97;100.00;100504.69;5088550;28;20033;-66
2023/01/12 04:19:40;;;;;;;19.23;5.75;;;;;;;8.03;100.00;100504.38;5091534;28;20476;-66
2023/01/12 04:24:49;;;;;;;15.25;7.28;;;;;;;7.97;100.00;100500.28;5103761;28;20070;-66
2023/01/12 04:27:15;;;;;;;15.68;6.05;;;;;;;7.99;100.00;100499.31;5089017;28;20437;-66
2023/01/12 04:29:41;;;;;;;17.67;6.72;;;;;;;7.97;100.00;100494.09;5087589;28;20126;-66
2023/01/12 04:32:07;;;;;;;21.33;6.90;;;;;;;7.96;100.00;100479.16;5088619;28;20044;-66
2023/01/12 04:34:33;;;;;;;20.05;6.63;;;;;;;7.88;100.00;100466.41;5091697;28;20025;-66
2023/01/12 04:37:00;;;;;;;21.23;6.65;;;;;;;7.74;100.00;100435.41;5113467;28;20484;-66
2023/01/12 04:39:28;;;;;;;23.75;7.20;;;;;;;7.82;100.00;100464.06;5094492;28;20023;-66
2023/01/12 04:41:54;;;;;;;20.95;6.65;;;;;;;7.80;100.00;100459.84;5078455;28;20438;-66
2023/01/12 04:44:20;;;;;;;19.15;6.95;;;;;;;7.84;100.00;100462.19;5094361;28;20038;-66
2023/01/12 04:46:48;;;;;;;13.00;6.20;;;;;;;7.78;100.00;100445.81;5077721;28;20502;-66
2023/01/12 04:49:13;;;;;;;20.27;7.13;;;;;;;7.79;100.00;100429.84;5074716;28;20385;-66
2023/01/12 04:51:39;;;;;;;15.27;6.35;;;;;;;7.81;100.00;100416.53;5074693;28;20027;-66
2023/01/12 04:54:04;;;;;;;20.65;7.05;;;;;;;7.74;100.00;100406.28;5057051;28;20032;-66
2023/01/12 04:56:30;;;;;;;18.17;6.82;;;;;;;7.47;100.00;100336.44;5079927;28;20131;-66
2023/01/12 04:58:59;;;;;;;18.00;6.68;;;;;;;7.70;100.00;100417.97;5074283;28;20055;-66
2023/01/12 05:01:27;;;;;;;24.42;7.47;;;;;;;7.77;100.00;100399.97;5093011;28;20028;-65
2023/01/12 05:03:54;;;;;;;17.98;6.78;;;;;;;7.72;100.00;100402.03;5092363;28;20020;-66
2023/01/12 05:06:24;;;;;;;18.48;7.05;;;;;;;7.73;100.00;100409.91;5093439;28;20023;-65
2023/01/12 05:11:36;;;;;;;19.90;6.47;;;;;;;7.72;100.00;100418.75;5112537;28;20224;-66
2023/01/12 05:14:02;;;;;;;17.10;7.05;;;;;;;7.66;100.00;100383.88;5112077;28;20487;-66
2023/01/12 05:16:28;;;;;;;19.17;6.22;;;;;;;7.68;100.00;100388.13;5094222;28;20031;-66
2023/01/12 05:18:56;;;;;;;21.23;8.38;;;;;;;7.74;100.00;100394.84;5111662;28;20042;-66
2023/01/12 05:21:23;;;;;;;19.40;7.35;;;;;;;7.77;100.00;100405.25;5112518;28;20119;-66
2023/01/12 05:23:50;;;;;;;26.15;7.13;;;;;;;7.85;100.00;100399.50;5112066;28;20470;-66
2023/01/12 05:26:15;;;;;;;16.77;5.97;;;;;;;7.80;100.00;100407.72;5090584;28;20102;-65
2023/01/12 05:28:43;;;;;;;17.92;6.50;;;;;;;7.85;100.00;100405.69;5090695;28;20043;-66
2023/01/12 05:31:12;;;;;;;16.75;6.45;;;;;;;7.78;100.00;100398.16;5093342;28;20513;-65
2023/01/12 05:33:39;;;;;;;19.08;6.82;;;;;;;7.77;100.00;100397.31;5100390;28;20082;-66
2023/01/12 05:36:08;;;;;;;15.82;6.28;;;;;;;7.75;100.00;100393.91;5103957;28;20096;-65
2023/01/12 05:38:34;;;;;;;19.40;6.00;;;;;;;7.77;100.00;100393.84;5111678;28;20461;-66
2023/01/12 05:41:01;;;;;;;19.17;6.32;;;;;;;7.72;100.00;100383.50;5098628;28;20070;-65
2023/01/12 05:46:11;;;;;;;14.13;5.97;;;;;;;7.84;100.00;100384.56;5095973;28;20084;-65
2023/01/12 05:48:37;;;;;;;14.48;5.60;;;;;;;7.83;100.00;100380.22;5100161;28;20039;-66
2023/01/12 05:51:04;;;;;;;22.23;6.75;;;;;;;7.80;100.00;100386.56;5100993;28;20465;-65
2023/01/12 05:53:30;;;;;;;15.85;5.90;;;;;;;7.82;100.00;100394.38;5095504;28;20027;-65
2023/01/12 05:55:56;;;;;;;13.30;5.40;;;;;;;7.82;100.00;100389.09;5108972;28;20027;-65
2023/01/12 05:58:25;;;;;;;15.63;5.68;;;;;;;7.84;100.00;100372.19;5089802;28;20016;-66
2023/01/12 06:00:51;;;;;;;16.17;5.90;;;;;;;7.79;100.00;100378.69;5094946;28;20039;-66
2023/01/12 06:03:17;;;;;;;13.48;5.90;;;;;;;7.82;100.00;100381.16;5096022;28;20080;-65
2023/01/12 06:05:42;;;;;;;12.50;5.97;;;;;;;7.84;100.00;100380.13;5102423;28;20037;-66
2023/01/12 06:08:10;;;;;;;14.32;5.97;;;;;;;7.97;100.00;100370.53;5075150;28;20440;-66
2023/01/12 06:10:38;;;;;;;15.35;6.25;;;;;;;7.88;100.00;100386.97;5108958;28;20031;-65
2023/01/12 06:15:47;;;;;;;11.68;5.45;;;;;;;7.90;100.00;100374.47;5096834;28;20051;-66
2023/01/12 06:18:13;;;;;;;14.57;6.18;;;;;;;7.90;100.00;100385.06;5114860;28;20482;-65
2023/01/12 06:20:39;;;;;;;9.20;5.32;;;;;;;7.90;100.00;100382.41;5113822;28;20092;-65
2023/01/12 06:23:08;;;;;;;11.70;4.88;;;;;;;7.93;100.00;100366.34;5098009;28;20036;-65
2023/01/12 06:25:33;;;;;;;10.88;4.93;;;;;;;7.94;100.00;100370.72;5114706;28;20028;-65
2023/01/12 06:27:59;;;;;;;11.20;5.60;;;;;;;8.01;100.00;100383.56;5116039;28;20038;-65
2023/01/12 06:30:24;;;;;;;12.15;5.43;;;;;;;7.98;100.00;100376.66;5076620;28;20031;-66
2023/01/12 06:32:50;;;;;;;10.85;4.90;;;;;;;7.98;100.00;100384.59;5078962;28;20425;-66
2023/01/12 06:35:16;;;;;;;11.52;5.10;;;;;;;8.06;100.00;100397.38;5080409;28;20059;-66
2023/01/12 06:37:42;;;;;;;10.93;4.13;;;;;;;8.06;100.00;100397.38;5097719;28;20452;-65
2023/01/12 06:40:08;;;;;;;9.05;4.28;;;;;;;8.07;100.00;100376.09;5113059;28;20127;-65
2023/01/12 06:42:40;;;;;;;8.20;4.53;;;;;;;8.13;100.00;100382.84;5077005;28;20028;-65
2023/01/12 06:45:09;;;;;;;9.60;4.45;;;;;;;8.29;100.00;100375.63;5093782;28;20039;-65
2023/01/12 06:47:47;;;;;;;7.95;4.20;;;;;;;8.13;100.00;100378.38;5093663;28;20060;-65
2023/01/12 06:50:13;;;;;;;10.50;4.88;;;;;;;8.15;100.00;100371.19;5096563;28;20114;-65
2023/01/12 06:52:38;;;;;;;9.80;4.38;;;;;;;8.14;100.00;100389.81;5096769;28;20153;-65
2023/01/12 06:55:04;;;;;;;9.15;4.65;;;;;;;8.17;100.00;100400.22;5114814;28;20037;-65
2023/01/12 06:57:29;;;;;;;9.82;4.50;;;;;;;8.20;100.00;100384.16;5097190;28;20055;-65
2023/01/12 06:59:57;;;;;;;6.28;4.07;;;;;;;8.20;100.00;100381.50;5077770;28;20035;-65
2023/01/12 07:02:23;;;;;;;8.05;4.70;;;;;;;8.24;100.00;100383.03;5096834;28;20027;-65
2023/01/12 07:04:49;;;;;;;8.90;4.20;;;;;;;8.23;100.00;100373.38;5082884;28;20487;-65
2023/01/12 07:07:14;;;;;;;11.25;4.20;;;;;;;8.28;100.00;100379.25;5080564;28;20115;-65
2023/01/12 07:09:40;;;;;;;8.15;3.90;;;;;;;8.16;100.00;100372.91;5082879;28;20056;-65
2023/01/12 07:12:05;;;;;;;9.60;4.03;;;;;;;8.20;100.00;100381.50;5076429;28;20107;-65
2023/01/12 07:14:33;;;;;;;8.43;4.80;;;;;;;8.25;100.00;100376.78;5094336;28;20027;-65
2023/01/12 07:16:59;;;;;;;5.50;4.03;;;;;;;8.16;100.00;100380.84;5093355;28;20024;-65
2023/01/12 07:19:25;;;;;;;6.18;4.50;;;;;;;8.22;100.00;100392.88;5076906;28;20448;-64
2023/01/12 07:21:50;;;;;;;5.97;4.13;;;;;;;8.25;100.00;100381.25;5076394;28;20024;-64
2023/01/12 07:24:16;;;;;;;7.38;4.53;;;;;;;8.23;100.00;100378.66;5092658;28;20047;-65
2023/01/12 07:26:44;;;;;;;5.85;3.85;;;;;;;8.25;100.00;100381.25;5090144;28;20074;-65
2023/01/12 07:29:13;;;;;;;7.82;4.30;;;;;;;8.30;100.00;100397.72;5085187;28;20024;-65
2023/01/12 07:31:39;;;;;;;6.25;4.85;;;;;;;8.31;100.00;100373.75;5083983;28;20089;-65
2023/01/12 07:34:04;;;;;;;10.23;4.90;;;;;;;8.28;100.00;100408.38;5090221;28;20482;-64
2023/01/12 07:36:31;;;;;;;9.05;4.45;;;;;;;8.40;100.00;100405.03;5078723;28;20027;-64
2023/01/12 07:38:59;;;;;;;6.65;3.97;;;;;;;8.34;100.00;100394.75;5077933;28;20050;-65
2023/01/12 07:44:09;;;;;;;7.30;4.07;;;;;;;8.30;100.00;100395.91;5084733;28;20551;-65
2023/01/12 07:46:34;;;;;;;8.52;4.22;;;;;;;8.32;100.00;100404.59;5113618;28;20027;-65
2023/01/12 07:49:00;;;;;;;6.32;4.03;;;;;;;8.29;100.00;100399.47;5075397;28;20480;-65
2023/01/12 07:51:25;;;;;;;7.22;3.70;;;;;;;8.46;100.00;100385.25;5093580;28;20032;-65
2023/01/12 07:53:51;;;;;;;6.78;3.92;;;;;;;8.39;100.00;100405.97;5091926;28;20028;-64
2023/01/12 07:56:21;;;;;;;4.75;3.78;;;;;;;8.40;100.00;100407.66;5092510;28;20016;-64
2023/01/12 07:58:47;;;;;;;8.68;4.38;;;;;;;8.48;100.00;100409.88;5092246;28;20486;-65
2023/01/12 08:01:15;;;;;;;7.10;3.78;;;;;;;8.47;100.00;100428.50;5092237;28;20106;-65
2023/01/12 08:03:41;;;;;;;6.45;4.15;;;;;;;8.46;100.00;100422.34;5092011;28;20038;-65
2023/01/12 08:06:07;;;;;;;4.88;3.88;;;;;;;8.53;100.00;100420.16;5107146;28;20115;-65
2023/01/12 08:08:33;;;;;;;5.90;4.32;;;;;;;8.49;100.00;100427.47;5109290;28;20022;-65
2023/01/12 08:11:04;;;;;;;6.30;4.03;;;;;;;8.42;100.00;100439.38;5093850;28;20058;-65
2023/01/12 08:13:30;;;;;;;8.15;4.00;;;;;;;8.46;100.00;100443.53;5080720;28;20035;-64
2023/01/12 08:16:03;;;;;;;7.22;4.35;;;;;;;8.48;100.00;100444.31;5095956;28;20024;-65
2023/01/12 08:18:33;;;;;;;6.05;4.15;;;;;;;8.41;100.00;100432.38;5093400;28;20092;-66
2023/01/12 08:21:04;;;;;;;6.85;4.38;;;;;;;8.49;100.00;100450.47;5100544;28;20027;-65
2023/01/12 08:23:37;;;;;;;5.25;3.95;;;;;;;8.51;100.00;100436.19;5113120;28;20023;-65
2023/01/12 08:26:09;;;;;;;5.38;3.95;;;;;;;8.49;100.00;100459.25;5095269;28;20153;-65
2023/01/12 08:28:39;;;;;;;6.95;3.80;;;;;;;8.51;100.00;100453.88;5097762;28;20031;-65
2023/01/12 08:31:08;;;;;;;6.22;3.75;;;;;;;8.58;100.00;100463.16;5096789;28;20032;-66
2023/01/12 08:33:34;;;;;;;5.22;3.80;;;;;;;8.51;100.00;100448.59;5104640;28;20028;-66
2023/01/12 08:36:03;;;;;;;4.78;4.03;;;;;;;8.65;100.00;100456.53;5112459;28;20019;-65
2023/01/12 08:38:29;;;;;;;4.10;3.80;;;;;;;8.54;100.00;100456.34;5106938;28;20509;-65
2023/01/12 08:44:00;;;;;;;7.75;4.00;;;;;;;8.58;100.00;100445.44;5095252;28;20055;-65
2023/01/12 08:46:29;;;;;;;6.13;3.72;;;;;;;8.55;100.00;100469.50;5096897;28;20158;-65
2023/01/12 08:48:54;;;;;;;5.82;3.75;;;;;;;8.45;100.00;100446.31;5093725;28;20089;-65
2023/01/12 08:51:22;;;;;;;6.03;4.28;;;;;;;8.71;100.00;100471.22;5094033;28;20040;-65
2023/01/12 08:53:48;;;;;;;4.50;3.45;;;;;;;8.73;100.00;100483.41;5077006;28;20032;-66
2023/01/12 08:56:14;;;;;;;8.18;3.95;;;;;;;8.69;100.00;100483.72;5076231;28;20478;-66
2023/01/12 08:58:42;;;;;;;4.65;4.03;;;;;;;8.71;100.00;100482.69;5103295;28;20402;-65
2023/01/12 09:01:10;;;;;;;6.00;3.85;;;;;;;8.70;100.00;100467.69;5107144;28;20605;-65
2023/01/12 09:03:37;;;;;;;4.65;3.65;;;;;;;8.70;100.00;100480.09;5099806;28;20036;-65
2023/01/12 09:06:20;;;;;;;4.72;4.00;;;;;;;8.79;100.00;100472.44;5102323;28;20020;-65
2023/01/12 09:08:47;;;;;;;3.63;3.30;;;;;;;8.72;100.00;100481.72;5086324;28;20119;-65
2023/01/12 09:11:16;;;;;;;5.32;4.10;;;;;;;8.75;100.00;100488.63;5093971;28;20470;-66
2023/01/12 09:13:41;;;;;;;3.53;2.33;;;;;;;8.79;100.00;100490.16;5093891;28;20257;-65
2023/01/12 09:16:10;;;;;;;4.93;3.38;;;;;;;8.87;100.00;100479.91;5076854;28;20114;-65
2023/01/12 09:18:36;;;;;;;5.15;4.05;;;;;;;8.79;100.00;100500.75;5072959;28;20011;-65
2023/01/12 09:21:07;;;;;;;5.60;3.92;;;;;;;8.83;100.00;100502.28;5084870;28;20084;-65
2023/01/12 09:23:32;;;;;;;3.97;3.40;;;;;;;8.86;100.00;100495.00;5085898;28;20254;-66
2023/01/12 09:26:08;;;;;;;4.05;3.47;;;;;;;8.93;100.00;100521.97;5075327;28;20387;-66
2023/01/12 09:28:34;;;;;;;3.70;3.40;;;;;;;8.89;100.00;100501.91;5105238;28;20378;-66
2023/01/12 09:31:06;;;;;;;4.13;3.80;;;;;;;8.89;100.00;100499.25;5104174;28;20189;-66
2023/01/12 09:33:36;;;;;;;3.80;3.50;;;;;;;8.84;100.00;100493.38;5106619;28;20098;-65
2023/01/12 09:36:07;;;;;;;5.25;3.72;;;;;;;9.00;100.00;100503.88;5090137;28;20102;-65
2023/01/12 09:38:41;;;;;;;3.60;3.30;;;;;;;8.99;100.00;100496.88;5085028;28;20084;-65
2023/01/12 09:41:11;;;;;;;7.53;3.38;;;;;;;8.97;100.00;100501.41;5103766;28;20036;-65
2023/01/12 09:49:26;;;;;;;4.32;3.03;;;;;;;9.04;100.00;100500.94;5097636;28;20035;-65
2023/01/12 09:51:58;;;;;;;4.55;2.80;;;;;;;8.93;100.00;100526.44;5108466;28;20023;-66
2023/01/12 09:54:24;;;;;;;3.50;3.28;;;;;;;8.99;100.00;100528.69;5092512;28;20016;-65
2023/01/12 09:57:04;;;;;;;4.57;3.10;;;;;;;8.94;100.00;100522.81;5092639;28;20046;-66
2023/01/12 09:59:47;;;;;;;;;;;;;;;9.24;100.00;100530.69;5111558;28;20056;-66
2023/01/12 10:02:13;;;;;;;4.97;2.97;;;;;;;8.99;100.00;100531.34;5095545;28;20366;-65
2023/01/12 10:04:39;;;;;;;3.33;3.13;;;;;;;9.01;100.00;100538.28;5092745;28;20031;-65
2023/01/12 10:07:08;;;;;;;4.10;3.50;;;;;;;8.96;100.00;100532.41;5073363;28;20035;-65
2023/01/12 10:09:36;;;;;;;4.78;3.10;;;;;;;8.95;100.00;100545.78;5090848;28;20028;-66
2023/01/12 10:12:14;;;;;;;4.63;2.90;;;;;;;9.10;100.00;100532.41;5056940;28;20372;-65
2023/01/12 10:14:57;;;;;;;4.53;3.15;;;;;;;9.02;100.00;100524.06;5091607;28;20059;-66
2023/01/12 10:17:29;;;;;;;4.25;3.28;;;;;;;9.03;100.00;100540.81;5111729;28;20032;-66
2023/01/12 10:20:01;;;;;;;4.13;2.80;;;;;;;9.05;100.00;100530.97;5093670;28;20032;-65
2023/01/12 10:22:35;;;;;;;3.42;3.22;;;;;;;9.07;100.00;100540.56;5093587;28;20069;-65
2023/01/12 10:25:13;;;;;;;3.35;3.05;;;;;;;9.06;100.00;100543.31;5105584;28;20028;-65
2023/01/12 10:27:42;;;;;;;4.63;2.83;;;;;;;9.02;100.00;100533.81;5091365;28;20086;-66
2023/01/12 10:30:31;;;;;;;4.10;3.55;;;;;;;9.06;100.00;100527.41;5091431;28;20073;-65
2023/01/12 10:33:10;;;;;;;3.58;3.35;;;;;;;9.07;100.00;100543.19;5094252;28;20110;-65
2023/01/12 10:35:55;;;;;;;4.88;2.90;;;;;;;9.12;100.00;100539.41;5089666;28;20236;-65
2023/01/12 10:38:25;;;;;;;3.47;3.17;;;;;;;9.01;100.00;100519.72;5089718;28;20028;-65
2023/01/12 10:41:05;;;;;;;3.28;2.90;;;;;;;9.14;100.00;100527.75;5089869;28;20095;-65
2023/01/12 10:43:32;;;;;;;3.22;3.03;;;;;;;9.08;100.00;100531.63;5099709;28;20039;-65
2023/01/12 10:46:03;;;;;;;3.70;3.22;;;;;;;9.14;100.00;100524.25;5107996;28;20020;-66
2023/01/12 10:48:29;;;;;;;3.92;3.30;;;;;;;9.12;100.00;100523.47;5092944;28;20049;-65
2023/01/12 10:51:01;;;;;;;3.65;3.08;;;;;;;9.19;100.00;100517.72;5087100;28;20448;-65
2023/01/12 10:53:36;;;;;;;3.13;2.92;;;;;;;9.22;100.00;100536.09;5091002;28;20028;-65
2023/01/12 10:56:25;;;;;;;4.43;2.95;;;;;;;9.24;100.00;100536.00;5107176;28;20031;-65
2023/01/12 10:58:59;;;;;;;4.30;2.25;;;;;;;9.14;100.00;100514.47;5111030;28;20031;-65
2023/01/12 11:01:24;;;;;;;3.40;3.20;;;;;;;9.23;100.00;100532.47;5092402;28;20080;-66
2023/01/12 11:03:50;;;;;;;3.88;3.35;;;;;;;9.20;100.00;100530.03;5092783;28;20686;-66
2023/01/12 11:06:29;;;;;;;3.03;2.83;;;;;;;9.24;100.00;100536.84;5059225;28;20063;-65
2023/01/12 11:09:15;;;;;;;3.22;2.92;;;;;;;9.20;100.00;100545.09;5109047;28;20035;-65
2023/01/12 11:11:40;;;;;;;3.05;2.85;;;;;;;9.24;100.00;100536.00;5102140;28;20075;-65
2023/01/12 11:14:19;;;;;;;3.47;3.25;;;;;;;9.17;100.00;100532.03;5077916;28;20032;-65
2023/01/12 11:16:48;;;;;;;2.17;2.03;;;;;;;9.24;100.00;100538.66;5110160;28;20035;-66
2023/01/12 11:19:22;;;;;;;4.47;3.08;;;;;;;9.25;100.00;100533.25;5075760;28;20039;-65
2023/01/12 11:21:56;;;;;;;3.38;3.17;;;;;;;9.36;100.00;100532.59;5095994;28;20435;-66
2023/01/12 11:24:36;;;;;;;3.35;3.13;;;;;;;9.33;100.00;100528.31;5091526;28;20046;-65
2023/01/12 11:27:32;;;;;;;3.20;3.00;;;;;;;9.35;100.00;100532.66;5110262;28;20043;-66
2023/01/12 11:30:17;;;;;;;4.78;3.30;;;;;;;9.28;100.00;100522.44;5065332;28;20035;-65
2023/01/12 11:32:48;;;;;;;3.30;3.00;;;;;;;9.26;100.00;100524.31;5109028;28;20069;-65
2023/01/12 11:35:36;;;;;;;3.08;2.88;;;;;;;9.28;100.00;100529.56;5091376;28;20115;-65
2023/01/12 11:38:10;;;;;;;3.08;2.85;;;;;;;9.22;100.00;100520.16;5096002;28;20015;-65
2023/01/12 11:40:37;;;;;;;3.45;3.03;;;;;;;9.27;100.00;100541.13;5109496;28;20034;-65
2023/01/12 11:46:25;;;;;;;3.60;3.30;;;;;;;9.25;100.00;100504.06;5106081;28;20410;-65
2023/01/12 11:49:21;;;;;;;4.28;3.20;;;;;;;9.33;100.00;100512.38;5109509;28;20054;-65
2023/01/12 11:51:50;;;;;;;2.95;2.72;;;;;;;9.23;100.00;100511.25;5090236;28;20031;-65
2023/01/12 11:54:17;;;;;;;3.38;2.92;;;;;;;9.30;100.00;100509.94;5109313;28;20024;-65
2023/01/12 11:57:14;;;;;;;3.53;3.15;;;;;;;9.32;100.00;100516.00;5107036;28;20390;-65
2023/01/12 12:00:05;;;;;;;3.00;2.83;;;;;;;9.37;100.00;100520.16;5104480;28;20095;-65
2023/01/12 12:02:44;;;;;;;3.88;2.80;;;;;;;9.43;100.00;100509.16;5094948;28;20039;-65
2023/01/12 12:05:52;;;;;;;3.25;3.05;;;;;;;9.51;100.00;100499.75;5107936;28;20367;-65
2023/01/12 12:08:38;;;;;;;3.42;3.13;;;;;;;9.41;100.00;100503.06;5101623;28;20104;-66
2023/01/12 12:11:25;;;;;;;3.25;3.05;;;;;;;9.41;100.00;100484.50;5105418;28;20030;-65
2023/01/12 12:14:31;;;;;;;2.95;2.67;;;;;;;9.40;100.00;100496.06;5098914;28;20424;-65